Time;durP1;ratioP1;P1;durP2;ratioP2;P2;SDS_P1;SDS_P2;PMS_P1;PMS_P2;Temp;Humidity;BMP_temperature;BMP_pressure;BME280_temperature;BME280_humidity;BME280_pressure;Samples;Min_cycle;Max_cycle;Signal;HPM_P1;HPM_P2
2023/06/28 00:01:17;;;;;;;3.03;0.30;;;;;;;24.04;34.62;101833.75;16109066;19;129681;-40
2023/06/28 00:06:39;;;;;;;0.80;0.35;;;;;;;24.03;34.71;101834.84;16102770;19;130143;-46
2023/06/28 00:12:03;;;;;;;0.43;0.28;;;;;;;24.03;34.84;101834.84;16100914;19;131538;-43
2023/06/28 00:17:29;;;;;;;1.02;0.40;;;;;;;24.02;34.70;101836.81;16104560;19;130313;-45
2023/06/28 00:22:52;;;;;;;1.15;0.40;;;;;;;24.02;34.86;101827.56;16113508;19;131243;-39
2023/06/28 00:28:14;;;;;;;0.35;0.25;;;;;;;24.00;34.86;101832.59;16109431;19;131403;-42
2023/06/28 00:33:37;;;;;;;0.70;0.20;;;;;;;23.99;35.13;101842.91;16103290;19;129527;-40
2023/06/28 00:38:59;;;;;;;0.65;0.22;;;;;;;23.99;35.04;101833.69;16104048;19;131154;-42
2023/06/28 00:44:20;;;;;;;0.30;0.20;;;;;;;23.98;35.44;101838.44;16097811;19;129427;-42
2023/06/28 00:49:43;;;;;;;0.40;0.20;;;;;;;23.99;35.04;101833.69;16099744;19;129688;-41
2023/06/28 00:55:05;;;;;;;0.60;0.20;;;;;;;23.96;35.14;101826.66;16117837;19;129461;-39
2023/06/28 01:00:27;;;;;;;0.30;0.20;;;;;;;23.96;35.07;101826.66;16115874;19;131184;-40
2023/06/28 01:05:52;;;;;;;0.30;0.22;;;;;;;23.95;35.19;101823.03;16117693;19;134345;-41
2023/06/28 01:11:15;;;;;;;0.27;0.20;;;;;;;23.94;35.36;101821.34;16122251;19;130041;-46
2023/06/28 01:16:37;;;;;;;0.38;0.20;;;;;;;23.94;35.56;101820.47;16118992;19;131773;-45
2023/06/28 01:22:02;;;;;;;0.95;0.30;;;;;;;23.94;35.60;101821.34;16125080;19;129911;-41
2023/06/28 01:27:24;;;;;;;0.40;0.30;;;;;;;23.92;35.94;101825.50;16122660;19;129541;-40
2023/06/28 01:32:46;;;;;;;0.40;0.20;;;;;;;23.92;35.60;101823.53;16111888;19;129501;-41
2023/06/28 01:38:10;;;;;;;0.20;0.20;;;;;;;23.92;35.81;101825.50;16111601;19;130084;-41
2023/06/28 01:43:33;;;;;;;2.38;0.20;;;;;;;23.91;35.47;101821.84;16116140;19;130829;-41
2023/06/28 01:48:54;;;;;;;0.20;0.10;;;;;;;23.90;35.89;101819.34;16114169;19;131644;-40
2023/06/28 01:54:16;;;;;;;0.55;0.20;;;;;;;23.89;35.79;101812.88;16117109;19;129761;-44
2023/06/28 01:59:38;;;;;;;0.45;0.20;;;;;;;23.88;35.88;101810.38;16120082;19;130169;-42
2023/06/28 02:05:00;;;;;;;0.52;0.25;;;;;;;23.87;35.75;101809.53;16114150;19;130380;-44
2023/06/28 02:10:23;;;;;;;0.45;0.20;;;;;;;23.87;36.11;101797.50;16113732;19;129439;-44
2023/06/28 02:15:45;;;;;;;1.00;0.32;;;;;;;23.86;35.73;101796.66;16111457;19;129696;-40
2023/06/28 02:21:07;;;;;;;2.53;0.30;;;;;;;23.87;35.91;101803.94;16114119;19;129215;-39
2023/06/28 02:26:30;;;;;;;0.55;0.30;;;;;;;23.86;36.08;101801.38;16114056;19;131368;-40
2023/06/28 02:31:51;;;;;;;0.80;0.30;;;;;;;23.84;35.91;101796.06;16118508;19;129185;-39
2023/06/28 02:37:13;;;;;;;0.50;0.20;;;;;;;23.84;35.92;101789.63;16119032;19;133248;-47
2023/06/28 02:42:36;;;;;;;0.77;0.30;;;;;;;23.83;36.31;101786.00;16108430;19;131438;-49
2023/06/28 02:47:58;;;;;;;0.50;0.20;;;;;;;23.81;36.48;101782.63;16114399;19;131206;-49
2023/06/28 02:53:20;;;;;;;0.40;0.30;;;;;;;23.82;36.45;101781.50;16111985;19;130040;-49
2023/06/28 02:58:42;;;;;;;0.75;0.30;;;;;;;23.81;36.47;101782.63;16112834;19;130094;-45
2023/06/28 03:04:04;;;;;;;0.57;0.20;;;;;;;23.80;36.38;101784.59;16108121;19;131282;-49
2023/06/28 03:09:26;;;;;;;0.75;0.30;;;;;;;23.80;36.68;101780.94;16116046;19;129417;-46
2023/06/28 03:14:48;;;;;;;0.40;0.20;;;;;;;23.80;36.68;101775.34;16109521;19;129861;-49
2023/06/28 03:20:11;;;;;;;0.68;0.30;;;;;;;23.79;36.53;101785.69;16110029;19;130575;-46
2023/06/28 03:25:33;;;;;;;1.60;0.30;;;;;;;23.79;36.57;101773.66;16113511;19;130433;-48
2023/06/28 03:30:56;;;;;;;1.75;0.25;;;;;;;23.78;36.55;101766.38;16109441;19;133343;-45
2023/06/28 03:36:19;;;;;;;0.43;0.20;;;;;;;23.78;36.64;101769.16;16108340;19;129424;-48
2023/06/28 03:41:41;;;;;;;0.65;0.20;;;;;;;23.77;36.36;101764.69;16109789;19;129480;-45
2023/06/28 03:47:03;;;;;;;0.55;0.20;;;;;;;23.76;36.82;101763.84;16105906;19;129883;-49
2023/06/28 03:52:25;;;;;;;0.65;0.30;;;;;;;23.76;36.44;101762.97;16106969;19;130496;-43
2023/06/28 03:57:47;;;;;;;0.30;0.25;;;;;;;23.75;36.92;101766.91;16109882;19;130610;-41
2023/06/28 04:03:09;;;;;;;0.63;0.17;;;;;;;23.75;36.91;101755.75;16106390;19;129577;-46
2023/06/28 04:08:31;;;;;;;1.17;0.30;;;;;;;23.74;36.93;101759.63;16110089;19;130418;-42
2023/06/28 04:13:53;;;;;;;0.47;0.20;;;;;;;23.73;37.04;101753.19;16109070;19;129847;-44
2023/06/28 04:19:15;;;;;;;0.50;0.20;;;;;;;23.73;36.90;101761.56;16103432;19;135063;-47
2023/06/28 04:24:38;;;;;;;0.45;0.20;;;;;;;23.72;37.20;101757.09;16107645;19;131110;-41
2023/06/28 04:30:00;;;;;;;0.40;0.20;;;;;;;23.71;37.00;101760.16;16109281;19;129821;-45
2023/06/28 04:35:22;;;;;;;0.25;0.20;;;;;;;23.72;37.06;101756.25;16105796;19;131019;-42
2023/06/28 04:40:44;;;;;;;0.30;0.28;;;;;;;23.71;36.73;101765.75;16103408;19;129619;-42
2023/06/28 04:46:09;;;;;;;0.38;0.20;;;;;;;23.70;37.35;101770.47;16104448;19;129769;-47
2023/06/28 04:51:31;;;;;;;;;;;;;;;23.65;37.16;101757.28;16109268;19;129826;-44
2023/06/28 04:56:52;;;;;;;0.70;0.28;;;;;;;23.68;36.88;101749.50;16104043;19;130284;-41
2023/06/28 05:02:15;;;;;;;0.60;0.30;;;;;;;23.66;37.04;101760.94;16103693;19;130690;-43
2023/06/28 05:07:37;;;;;;;0.88;0.20;;;;;;;23.65;37.35;101757.28;16103899;19;131246;-42
2023/06/28 05:12:59;;;;;;;0.28;0.20;;;;;;;23.65;37.30;101762.03;16106156;19;131075;-41
2023/06/28 05:18:24;;;;;;;0.82;0.20;;;;;;;23.64;37.26;101761.19;16108044;19;131300;-41
2023/06/28 05:23:46;;;;;;;0.60;0.20;;;;;;;23.63;37.20;101764.25;16107999;19;130328;-43
2023/06/28 05:29:08;;;;;;;0.73;0.20;;;;;;;23.63;37.75;101762.28;16109692;19;129608;-41
2023/06/28 05:34:30;;;;;;;0.30;0.20;;;;;;;23.61;37.41;101764.50;16110823;19;130727;-42
2023/06/28 05:39:52;;;;;;;0.60;0.20;;;;;;;23.61;37.68;101761.72;16124730;19;129416;-41
2023/06/28 05:45:14;;;;;;;0.77;0.40;;;;;;;23.60;37.56;101770.34;16122094;19;133540;-44
2023/06/28 05:50:36;;;;;;;3.72;1.10;;;;;;;23.57;37.73;101762.47;16124363;19;130236;-43
2023/06/28 05:56:01;;;;;;;3.20;0.88;;;;;;;23.54;37.78;101755.44;16117479;19;132049;-45
2023/06/28 06:01:24;;;;;;;3.33;1.00;;;;;;;23.53;37.68;101747.34;16122772;19;129182;-44
2023/06/28 06:06:46;;;;;;;6.05;1.10;;;;;;;23.51;37.87;101744.78;16122554;19;128981;-44
2023/06/28 06:12:08;;;;;;;5.05;1.00;;;;;;;23.49;37.91;101747.00;16120389;19;130105;-44
2023/06/28 06:17:30;;;;;;;3.00;0.88;;;;;;;23.50;37.83;101740.31;16118666;19;130274;-42
2023/06/28 06:22:52;;;;;;;1.67;0.82;;;;;;;23.49;38.05;101745.06;16118983;19;129866;-44
2023/06/28 06:28:14;;;;;;;4.18;0.90;;;;;;;23.50;38.09;101745.91;16117995;19;131860;-42
2023/06/28 06:33:36;;;;;;;3.70;0.80;;;;;;;23.48;38.25;101745.31;16116169;19;130147;-44
2023/06/28 06:38:58;;;;;;;2.55;1.00;;;;;;;23.48;38.06;101745.31;16113275;19;129962;-44
2023/06/28 06:44:20;;;;;;;4.38;1.10;;;;;;;23.47;38.19;101754.81;16117822;19;129748;-46
2023/06/28 06:49:41;;;;;;;5.82;1.05;;;;;;;23.46;38.07;101750.31;16114667;19;129892;-42
2023/06/28 06:55:04;;;;;;;4.82;0.95;;;;;;;23.46;38.27;101753.09;16116834;19;129344;-47
2023/06/28 07:00:27;;;;;;;5.40;0.80;;;;;;;23.45;38.10;101751.41;16118544;19;130387;-49
2023/06/28 07:05:48;;;;;;;3.22;0.80;;;;;;;23.44;38.15;101753.38;16114361;19;130644;-47
2023/06/28 07:11:10;;;;;;;2.90;0.90;;;;;;;23.44;38.32;101747.78;16118739;19;130219;-46
2023/06/28 07:16:33;;;;;;;4.60;1.30;;;;;;;23.44;38.22;101756.16;16118035;19;129638;-45
2023/06/28 07:21:55;;;;;;;3.08;0.90;;;;;;;23.45;38.35;101754.22;16114150;19;129817;-44
2023/06/28 07:27:17;;;;;;;2.05;0.80;;;;;;;23.44;38.25;101761.75;16110874;19;129635;-44
2023/06/28 07:32:39;;;;;;;4.05;1.10;;;;;;;23.44;38.68;101760.91;16111210;19;131118;-45
2023/06/28 07:38:01;;;;;;;3.80;1.13;;;;;;;23.43;38.26;101756.41;16114197;19;130311;-45
2023/06/28 07:43:23;;;;;;;2.03;0.90;;;;;;;23.44;38.59;101760.91;16114696;19;129644;-46
2023/06/28 07:48:49;;;;;;;2.58;1.15;;;;;;;23.44;38.28;101756.16;16111040;19;130627;-46
2023/06/28 07:54:14;;;;;;;3.65;1.00;;;;;;;23.43;38.05;101760.06;16113745;19;130148;-46
2023/06/28 07:59:53;;;;;;;4.80;1.33;;;;;;;23.42;38.34;101761.16;16111200;19;129470;-45
2023/06/28 08:05:15;;;;;;;4.03;1.00;;;;;;;23.45;38.48;101760.63;16111667;19;131056;-41
2023/06/28 08:10:37;;;;;;;3.72;1.08;;;;;;;23.50;38.46;101759.88;16113009;19;129081;-42
2023/06/28 08:15:59;;;;;;;2.88;0.90;;;;;;;23.54;38.46;101762.97;16108875;19;131588;-43
2023/06/28 08:21:21;;;;;;;4.57;1.27;;;;;;;23.55;38.47;101759.91;16111107;19;132437;-46
2023/06/28 08:26:43;;;;;;;3.83;1.08;;;;;;;23.60;38.75;101767.56;16109120;19;129628;-44
2023/06/28 08:32:05;;;;;;;2.95;1.10;;;;;;;23.65;38.61;101773.22;16110056;19;129834;-44
2023/06/28 08:37:29;;;;;;;4.47;1.05;;;;;;;23.69;38.00;101773.53;16109082;19;129609;-46
2023/06/28 08:42:52;;;;;;;2.40;0.98;;;;;;;23.71;38.20;101765.75;16108115;19;129784;-48
2023/06/28 08:48:15;;;;;;;1.85;0.73;;;;;;;23.75;38.24;101764.13;16113340;19;130982;-45
2023/06/28 08:53:51;;;;;;;2.40;0.90;;;;;;;23.78;38.25;101761.66;16107113;19;129536;-45
2023/06/28 08:59:13;;;;;;;3.67;1.10;;;;;;;23.84;38.25;101754.16;16102410;19;129500;-42
2023/06/28 09:04:36;;;;;;;3.08;1.08;;;;;;;23.89;37.99;101751.41;16105232;19;130716;-47
2023/06/28 09:09:58;;;;;;;2.03;0.95;;;;;;;23.95;38.15;101755.09;16113479;19;129799;-45
2023/06/28 09:15:22;;;;;;;2.65;0.90;;;;;;;23.97;38.21;101753.75;16121899;19;131053;-44
2023/06/28 09:20:56;;;;;;;16.85;1.48;;;;;;;24.05;38.37;101758.03;16124632;19;130645;-46
2023/06/28 09:26:18;;;;;;;2.60;1.10;;;;;;;24.09;37.90;101758.34;16120418;19;130408;-43
2023/06/28 09:31:47;;;;;;;3.42;1.10;;;;;;;24.11;38.16;101744.94;16121855;19;130402;-42
2023/06/28 09:37:09;;;;;;;1.83;0.80;;;;;;;24.13;38.27;101751.09;16122553;19;129693;-44
2023/06/28 09:42:33;;;;;;;2.90;0.90;;;;;;;24.16;37.85;101749.75;16121546;19;130888;-44
2023/06/28 09:47:56;;;;;;;4.68;1.30;;;;;;;24.18;37.90;101742.75;16120795;19;130558;-43
2023/06/28 09:53:21;;;;;;;1.92;0.80;;;;;;;24.20;38.00;101756.47;16113025;19;129930;-44
2023/06/28 09:58:47;;;;;;;4.77;1.30;;;;;;;24.23;38.10;101745.63;16104708;19;130774;-45
2023/06/28 10:04:14;;;;;;;5.45;1.10;;;;;;;24.29;37.86;101749.34;16113657;19;129594;-45
2023/06/28 10:09:41;;;;;;;16.88;2.17;;;;;;;24.30;37.57;101733.41;16114379;19;129966;-41
2023/06/28 10:15:10;;;;;;;8.65;1.60;;;;;;;24.29;38.11;101726.97;16122196;19;129970;-40
2023/06/28 10:20:33;;;;;;;7.07;2.20;;;;;;;24.29;38.04;101731.69;16121718;19;130935;-41
2023/06/28 10:25:57;;;;;;;4.63;1.73;;;;;;;24.30;38.26;101728.66;16120971;19;130021;-44
2023/06/28 10:31:20;;;;;;;17.13;2.53;;;;;;;24.31;38.33;101721.94;16116649;19;131258;-42
2023/06/28 10:36:42;;;;;;;13.40;3.05;;;;;;;24.31;38.37;101723.91;16114458;19;129438;-41
2023/06/28 10:42:05;;;;;;;19.55;4.70;;;;;;;24.26;38.86;101719.94;16115885;19;129019;-44
2023/06/28 10:47:27;;;;;;;13.60;4.80;;;;;;;24.20;39.36;101712.59;16117729;19;132148;-44
2023/06/28 10:52:52;;;;;;;38.53;6.15;;;;;;;24.26;39.72;101717.16;16116684;19;130525;-42
2023/06/28 10:58:14;;;;;;;34.58;6.07;;;;;;;24.30;40.10;101716.63;16111032;19;130026;-40
2023/06/28 11:03:44;;;;;;;26.35;5.07;;;;;;;24.34;40.03;101712.19;16116648;19;129655;-40
2023/06/28 11:09:17;;;;;;;17.50;5.22;;;;;;;24.36;40.16;101701.59;16115885;19;130328;-47
2023/06/28 11:14:39;;;;;;;16.23;4.65;;;;;;;24.36;40.09;101705.22;16115200;19;129834;-45
2023/06/28 11:20:06;;;;;;;14.63;4.13;;;;;;;24.38;40.20;101700.19;16110329;19;129166;-48
2023/06/28 11:25:29;;;;;;;13.50;4.50;;;;;;;24.37;40.55;101700.47;16113275;19;129619;-41
2023/06/28 11:30:51;;;;;;;11.73;4.22;;;;;;;24.37;40.06;101694.88;16114039;19;131629;-44
2023/06/28 11:36:14;;;;;;;15.93;4.40;;;;;;;24.37;40.34;101694.88;16111838;19;133924;-45
2023/06/28 11:41:36;;;;;;;11.35;4.47;;;;;;;24.37;40.43;101700.47;16113863;19;129915;-47
2023/06/28 11:46:58;;;;;;;10.25;4.40;;;;;;;24.39;40.29;101698.22;16113792;19;130200;-43
2023/06/28 11:52:23;;;;;;;16.40;4.88;;;;;;;24.38;40.12;101685.34;16114806;19;130113;-40
2023/06/28 11:57:45;;;;;;;8.40;4.63;;;;;;;24.38;40.36;101696.53;16114857;19;129572;-43
2023/06/28 12:03:07;;;;;;;9.77;4.55;;;;;;;24.39;40.22;101687.03;16110866;19;129679;-41
2023/06/28 12:08:34;;;;;;;8.15;4.78;;;;;;;24.40;40.45;101677.53;16112302;19;132696;-40
2023/06/28 12:14:03;;;;;;;10.88;5.35;;;;;;;24.42;40.25;101680.94;16110779;19;129828;-40
2023/06/28 12:19:29;;;;;;;8.98;5.18;;;;;;;24.44;40.33;101673.13;16110871;19;130816;-43
2023/06/28 12:24:51;;;;;;;14.02;6.10;;;;;;;24.43;40.51;101680.63;16109784;19;129782;-43
2023/06/28 12:30:15;;;;;;;10.57;5.65;;;;;;;24.43;40.36;101682.63;16110930;19;131356;-43
2023/06/28 12:35:46;;;;;;;12.57;6.40;;;;;;;24.43;40.49;101677.84;16108028;19;129670;-40
2023/06/28 12:41:07;;;;;;;12.52;5.78;;;;;;;24.40;40.22;101666.34;16107162;19;130849;-45
2023/06/28 12:46:29;;;;;;;7.57;5.18;;;;;;;24.39;40.35;101670.25;16114163;19;133813;-46
2023/06/28 12:51:51;;;;;;;13.23;5.63;;;;;;;24.37;40.25;101672.50;16123014;19;130030;-40
2023/06/28 12:57:13;;;;;;;8.15;5.30;;;;;;;24.34;40.59;101671.06;16122504;19;129480;-43
2023/06/28 13:02:35;;;;;;;7.68;4.80;;;;;;;24.34;40.21;101659.88;16115090;19;130518;-41
2023/06/28 13:08:00;;;;;;;8.75;5.40;;;;;;;24.33;40.59;101665.75;16115165;19;130757;-41
2023/06/28 13:13:22;;;;;;;10.10;5.78;;;;;;;24.33;40.58;101665.75;16118188;19;131082;-41
2023/06/28 13:18:44;;;;;;;9.90;5.75;;;;;;;24.35;40.40;101669.13;16116610;19;130664;-42
2023/06/28 13:24:07;;;;;;;8.77;5.55;;;;;;;24.37;40.32;101658.53;16121493;19;131344;-46
2023/06/28 13:29:28;;;;;;;12.02;5.50;;;;;;;24.37;40.39;101650.97;16121541;19;129211;-41
2023/06/28 13:34:50;;;;;;;11.10;5.20;;;;;;;24.40;40.57;101656.03;16119316;19;130160;-47
2023/06/28 13:40:12;;;;;;;6.18;4.90;;;;;;;24.41;40.53;101651.28;16121822;19;129584;-41
2023/06/28 13:45:34;;;;;;;10.00;4.53;;;;;;;24.42;40.41;101667.81;16121258;19;129620;-45
2023/06/28 13:50:56;;;;;;;7.22;4.80;;;;;;;24.43;40.36;101654.66;16116419;19;130665;-40
2023/06/28 13:56:18;;;;;;;6.63;4.85;;;;;;;24.44;40.44;101659.13;16119797;19;130793;-49
2023/06/28 14:01:40;;;;;;;7.55;4.13;;;;;;;24.45;40.31;101648.78;16117432;19;131292;-44
2023/06/28 14:07:03;;;;;;;7.38;4.40;;;;;;;24.45;40.42;101652.44;16120086;19;129592;-44
2023/06/28 14:12:26;;;;;;;11.10;4.35;;;;;;;24.46;40.50;101647.66;16119369;19;130427;-42
2023/06/28 14:17:48;;;;;;;5.18;3.78;;;;;;;24.47;40.49;101649.34;16108859;19;131149;-42
2023/06/28 14:23:10;;;;;;;6.13;4.28;;;;;;;24.49;40.56;101656.38;16095486;19;130075;-43
2023/06/28 14:28:32;;;;;;;9.60;4.60;;;;;;;24.48;40.56;101637.91;16116584;19;129271;-42
2023/06/28 14:33:54;;;;;;;6.65;4.50;;;;;;;24.47;40.39;101639.03;16110253;19;130780;-42
2023/06/28 14:39:16;;;;;;;8.02;4.82;;;;;;;24.47;40.82;101638.16;16116770;19;129347;-46
2023/06/28 14:44:38;;;;;;;8.93;5.60;;;;;;;24.45;40.85;101641.25;16115443;19;130991;-43
2023/06/28 14:50:00;;;;;;;6.85;5.07;;;;;;;24.43;40.51;101638.69;16115999;19;131184;-44
2023/06/28 14:55:22;;;;;;;8.20;6.15;;;;;;;24.44;40.83;101633.97;16114980;19;130128;-49
2023/06/28 15:00:45;;;;;;;11.27;6.28;;;;;;;24.43;40.37;101638.69;16113715;19;130659;-47
2023/06/28 15:06:07;;;;;;;9.35;6.25;;;;;;;24.43;40.59;101626.69;16112231;19;131294;-42
2023/06/28 15:11:32;;;;;;;9.20;6.05;;;;;;;24.43;40.72;101621.09;16111234;19;131152;-42
2023/06/28 15:16:53;;;;;;;10.15;5.97;;;;;;;24.43;40.97;101621.91;16100653;19;129886;-42
2023/06/28 15:22:16;;;;;;;8.18;6.43;;;;;;;24.43;40.43;101615.50;16104138;19;132002;-42
2023/06/28 15:27:38;;;;;;;15.57;6.32;;;;;;;24.43;40.78;101615.50;16114274;19;131357;-44
2023/06/28 15:33:00;;;;;;;8.48;5.53;;;;;;;24.41;40.44;101612.97;16113953;19;129806;-41
2023/06/28 15:38:23;;;;;;;10.10;6.47;;;;;;;24.41;40.85;101614.91;16103095;19;131071;-40
2023/06/28 15:43:45;;;;;;;11.05;6.53;;;;;;;24.39;40.81;101612.41;16109800;19;130186;-42
2023/06/28 15:49:08;;;;;;;10.88;6.30;;;;;;;24.39;40.72;101619.94;16110664;19;129370;-43
2023/06/28 15:54:30;;;;;;;9.40;5.60;;;;;;;24.38;40.75;101612.66;16110903;19;135494;-40
2023/06/28 15:59:52;;;;;;;6.97;5.18;;;;;;;24.36;40.82;101604.53;16108242;19;129582;-40
2023/06/28 16:05:14;;;;;;;10.13;5.63;;;;;;;24.36;40.95;101612.09;16108811;19;131275;-40
2023/06/28 16:10:36;;;;;;;12.77;6.25;;;;;;;24.33;41.13;101610.66;16108470;19;132337;-40
2023/06/28 16:16:02;;;;;;;7.10;5.50;;;;;;;24.33;40.78;101621.03;16107017;19;130881;-40
2023/06/28 16:21:25;;;;;;;9.75;5.72;;;;;;;24.31;40.51;101617.63;16108051;19;130482;-40
2023/06/28 16:26:47;;;;;;;10.50;5.55;;;;;;;24.29;40.96;101620.72;16103293;19;131819;-43
2023/06/28 16:32:10;;;;;;;7.82;5.13;;;;;;;24.27;40.84;101615.38;16105943;19;130259;-41
2023/06/28 16:37:32;;;;;;;10.27;5.15;;;;;;;24.26;40.96;101615.66;16111073;19;130299;-44
2023/06/28 16:42:54;;;;;;;8.50;5.45;;;;;;;24.23;40.76;101605.81;16103520;19;129979;-46
2023/06/28 16:48:16;;;;;;;9.32;4.40;;;;;;;24.21;40.70;101608.03;16105813;19;129489;-43
2023/06/28 16:53:39;;;;;;;5.72;4.10;;;;;;;24.21;40.89;101613.63;16107686;19;131139;-44
2023/06/28 16:59:01;;;;;;;6.32;3.95;;;;;;;24.19;40.89;101610.25;16107783;19;130323;-40
2023/06/28 17:04:23;;;;;;;7.55;4.22;;;;;;;24.20;40.86;101611.09;16106949;19;128992;-39
2023/06/28 17:09:44;;;;;;;5.72;4.38;;;;;;;24.20;41.01;101606.34;16097396;19;130674;-44
2023/06/28 17:15:09;;;;;;;8.48;4.57;;;;;;;24.23;40.92;101605.81;16075262;19;130453;-44
2023/06/28 17:20:31;;;;;;;7.90;4.40;;;;;;;24.23;41.16;101605.81;16081814;19;131414;-44
2023/06/28 17:25:53;;;;;;;6.60;4.97;;;;;;;24.23;41.02;101610.56;16083128;19;129980;-48
2023/06/28 17:31:15;;;;;;;9.65;4.70;;;;;;;24.25;41.09;101613.97;16105344;19;130807;-46
2023/06/28 17:36:37;;;;;;;9.48;4.68;;;;;;;24.26;40.94;101610.06;16117792;19;129519;-46
2023/06/28 17:42:01;;;;;;;9.43;4.43;;;;;;;24.27;41.12;101611.75;16119198;19;129936;-45
2023/06/28 17:47:23;;;;;;;6.63;4.03;;;;;;;24.29;41.08;101615.13;16117112;19;131498;-44
2023/06/28 17:52:45;;;;;;;6.43;3.80;;;;;;;24.29;41.27;101611.47;16119529;19;130135;-44
2023/06/28 17:58:07;;;;;;;7.60;4.18;;;;;;;24.29;41.14;101614.25;16117736;19;130585;-45
2023/06/28 18:03:29;;;;;;;5.30;3.20;;;;;;;24.28;41.12;101607.84;16119885;19;130421;-45
2023/06/28 18:08:51;;;;;;;4.95;3.38;;;;;;;24.25;40.92;101616.75;16119700;19;130449;-43
2023/06/28 18:14:12;;;;;;;6.57;3.40;;;;;;;24.25;41.14;101619.56;16118757;19;129099;-42
2023/06/28 18:19:36;;;;;;;4.82;3.13;;;;;;;24.23;41.21;101616.16;16118878;19;131615;-45
2023/06/28 18:24:58;;;;;;;4.00;3.03;;;;;;;24.21;41.28;101613.63;16111849;19;129090;-44
2023/06/28 18:30:20;;;;;;;5.03;2.90;;;;;;;24.20;41.02;101616.69;16113912;19;131529;-46
2023/06/28 18:35:42;;;;;;;4.30;2.58;;;;;;;24.17;41.08;101618.06;16108520;19;129934;-44
2023/06/28 18:41:04;;;;;;;6.28;3.25;;;;;;;24.16;41.45;101621.97;16109780;19;130239;-45
2023/06/28 18:46:26;;;;;;;4.90;3.17;;;;;;;24.17;41.10;101612.47;16116108;19;129821;-48
2023/06/28 18:51:48;;;;;;;10.95;4.25;;;;;;;24.18;41.75;101616.97;16115620;19;130693;-39
2023/06/28 18:57:10;;;;;;;12.25;4.68;;;;;;;24.19;41.90;101604.66;16114508;19;129838;-39
2023/06/28 19:02:32;;;;;;;6.93;4.18;;;;;;;24.21;41.95;101616.44;16116755;19;129681;-44
2023/06/28 19:07:55;;;;;;;11.32;5.25;;;;;;;24.22;42.50;101612.53;16113426;19;133465;-46
2023/06/28 19:13:20;;;;;;;9.15;4.95;;;;;;;24.22;42.16;101611.66;16109858;19;130703;-42
2023/06/28 19:18:42;;;;;;;9.30;5.25;;;;;;;24.21;42.43;101608.03;16106315;19;129834;-44
2023/06/28 19:24:04;;;;;;;12.77;5.95;;;;;;;24.21;42.61;101607.19;16113514;19;130007;-47
2023/06/28 19:29:26;;;;;;;13.77;5.78;;;;;;;24.22;42.90;101603.28;16110076;19;130460;-42
2023/06/28 19:34:48;;;;;;;12.75;6.00;;;;;;;24.21;42.72;101596.00;16111854;19;131157;-42
2023/06/28 19:40:10;;;;;;;21.33;6.38;;;;;;;24.22;43.15;101601.34;16112981;19;130715;-42
2023/06/28 19:45:32;;;;;;;20.23;7.47;;;;;;;24.22;43.30;101597.69;16113726;19;130716;-49
2023/06/28 19:50:54;;;;;;;23.88;7.80;;;;;;;24.22;43.33;101612.53;16110327;19;129474;-43
2023/06/28 19:56:16;;;;;;;20.13;7.78;;;;;;;24.24;43.84;101617.84;16107504;19;130781;-43
2023/06/28 20:01:40;;;;;;;19.80;7.32;;;;;;;24.23;43.63;101617.00;16112435;19;130500;-44
2023/06/28 20:07:03;;;;;;;19.90;8.83;;;;;;;24.22;43.49;101615.31;16111449;19;130461;-44
2023/06/28 20:12:25;;;;;;;15.57;8.18;;;;;;;24.23;43.89;101617.00;16110366;19;129350;-41
2023/06/28 20:17:47;;;;;;;14.68;7.90;;;;;;;24.22;43.66;101615.31;16106741;19;131628;-46
2023/06/28 20:23:09;;;;;;;14.65;8.65;;;;;;;24.23;43.57;101625.41;16110797;19;130814;-41
2023/06/28 20:28:33;;;;;;;18.48;8.93;;;;;;;24.24;43.59;101629.91;16109292;19;130622;-43
2023/06/28 20:33:55;;;;;;;21.43;8.37;;;;;;;24.26;43.48;101632.44;16108384;19;130557;-47
2023/06/28 20:39:17;;;;;;;15.98;7.80;;;;;;;24.24;43.61;101631.81;16105592;19;129507;-41
2023/06/28 20:44:41;;;;;;;12.65;7.88;;;;;;;24.21;43.43;101641.59;16106360;19;130583;-43
2023/06/28 20:50:03;;;;;;;12.30;7.37;;;;;;;24.20;43.76;101634.31;16105750;19;130283;-43
2023/06/28 20:55:25;;;;;;;15.88;8.23;;;;;;;24.19;43.27;101643.81;16109393;19;130174;-42
2023/06/28 21:00:47;;;;;;;10.00;6.53;;;;;;;24.18;43.47;101638.50;16103768;19;131920;-45
2023/06/28 21:06:11;;;;;;;13.40;7.82;;;;;;;24.16;43.49;101644.34;16113962;19;133159;-49
2023/06/28 21:11:33;;;;;;;9.70;5.82;;;;;;;24.15;43.45;101631.47;16124253;19;131281;-44
2023/06/28 21:16:54;;;;;;;11.35;6.38;;;;;;;24.13;43.23;101630.88;16121999;19;133833;-42
2023/06/28 21:22:16;;;;;;;9.40;6.15;;;;;;;24.13;43.38;101639.28;16124030;19;131054;-42
2023/06/28 21:27:38;;;;;;;12.13;6.88;;;;;;;24.12;43.41;101638.44;16119464;19;130157;-48
2023/06/28 21:33:00;;;;;;;7.70;5.63;;;;;;;24.12;43.15;101629.22;16115694;19;129515;-41
2023/06/28 21:38:22;;;;;;;7.85;5.47;;;;;;;24.10;43.44;101634.25;16114279;19;130216;-44
2023/06/28 21:43:44;;;;;;;7.50;6.20;;;;;;;24.09;43.16;101632.56;16120042;19;129617;-44
2023/06/28 21:49:06;;;;;;;7.78;5.60;;;;;;;24.07;43.26;101618.00;16116857;19;130018;-44
2023/06/28 21:54:29;;;;;;;10.02;6.18;;;;;;;24.08;43.25;101630.84;16116207;19;131062;-45
2023/06/28 21:59:51;;;;;;;7.72;5.72;;;;;;;24.07;43.04;101623.59;16120334;19;129900;-45
2023/06/28 22:05:12;;;;;;;7.93;5.47;;;;;;;24.05;43.14;101621.06;16114926;19;130696;-44
2023/06/28 22:10:34;;;;;;;7.22;5.25;;;;;;;24.04;43.28;101607.34;16116920;19;134020;-45
2023/06/28 22:15:56;;;;;;;6.60;4.70;;;;;;;24.05;43.00;101600.63;16113765;19;129795;-45
2023/06/28 22:21:18;;;;;;;7.70;4.88;;;;;;;24.03;43.14;101602.84;16121670;19;131934;-43
2023/06/28 22:26:40;;;;;;;7.60;4.82;;;;;;;24.03;43.07;101591.69;16114148;19;129657;-47
2023/06/28 22:32:02;;;;;;;5.28;4.55;;;;;;;24.01;42.93;101583.56;16114893;19;129613;-42
2023/06/28 22:37:24;;;;;;;6.55;4.80;;;;;;;24.01;43.02;101591.09;16116122;19;129604;-45
2023/06/28 22:42:46;;;;;;;4.75;4.22;;;;;;;24.00;43.28;101578.25;16112760;19;130773;-43
2023/06/28 22:48:12;;;;;;;6.55;4.40;;;;;;;23.99;42.90;101576.56;16115733;19;129769;-43
2023/06/28 22:53:34;;;;;;;7.40;4.35;;;;;;;23.97;42.85;101576.81;16116009;19;130619;-43
2023/06/28 22:58:56;;;;;;;6.30;4.63;;;;;;;23.97;43.15;101574.03;16110998;19;130710;-41
2023/06/28 23:04:18;;;;;;;6.75;4.50;;;;;;;23.97;42.86;101571.22;16113481;19;131826;-41
2023/06/28 23:09:40;;;;;;;7.15;4.38;;;;;;;23.96;43.01;101569.53;16110013;19;130771;-42
2023/06/28 23:15:05;;;;;;;5.20;4.18;;;;;;;23.95;42.86;101573.44;16111476;19;131433;-42
2023/06/28 23:20:27;;;;;;;7.25;4.28;;;;;;;23.93;43.01;101565.34;16111934;19;130270;-43
2023/06/28 23:25:50;;;;;;;4.97;3.97;;;;;;;23.94;42.88;101568.97;16113659;19;131200;-43
2023/06/28 23:31:14;;;;;;;6.68;4.43;;;;;;;23.93;42.98;101562.53;16109830;19;130272;-42
2023/06/28 23:36:36;;;;;;;5.38;4.38;;;;;;;23.93;43.28;101567.31;16105882;19;130758;-42
2023/06/28 23:41:58;;;;;;;6.15;4.57;;;;;;;23.93;43.13;101561.72;16109479;19;131689;-42
2023/06/28 23:47:20;;;;;;;5.65;4.07;;;;;;;23.91;42.92;101559.16;16107168;19;131329;-43
2023/06/28 23:52:42;;;;;;;5.43;4.07;;;;;;;23.91;42.95;101555.53;16108549;19;129832;-45
2023/06/28 23:58:04;;;;;;;6.10;4.30;;;;;;;23.89;42.94;101550.22;16107939;19;131962;-41
